createdAt,value
2017-05-11T00:00:35.144Z,96.17
2017-05-11T00:01:46.160Z,95.98
2017-05-11T00:02:57.199Z,96.26
2017-05-11T00:04:08.205Z,95.79
2017-05-11T00:05:19.203Z,96.74
2017-05-11T00:06:30.414Z,96.45
2017-05-11T00:07:41.431Z,96.69
2017-05-11T00:08:52.634Z,96.65
2017-05-11T00:10:03.638Z,96.74
2017-05-11T00:11:14.693Z,96.93
2017-05-11T00:12:25.896Z,96.79
2017-05-11T00:13:36.898Z,96.22
2017-05-11T00:14:47.895Z,96.88
2017-05-11T00:15:58.905Z,97.07
2017-05-11T00:17:09.923Z,97.55
2017-05-11T00:18:20.939Z,97.64
2017-05-11T00:19:31.938Z,96.79
2017-05-11T00:20:42.997Z,96.69
2017-05-11T00:21:54.012Z,97.64
2017-05-11T00:23:05.021Z,97.92
2017-05-11T00:24:16.025Z,97.64
2017-05-11T00:25:27.240Z,97.07
2017-05-11T00:26:38.441Z,96.88
2017-05-11T00:27:49.457Z,96.98
2017-05-11T00:29:00.464Z,97.92
2017-05-11T00:30:11.677Z,97.92
2017-05-11T00:31:22.929Z,97.45
2017-05-11T00:32:34.138Z,97.92
2017-05-11T00:33:45.179Z,98.02
2017-05-11T00:34:56.189Z,97.92
2017-05-11T00:36:07.590Z,98.21
2017-05-11T00:37:18.828Z,98.21
2017-05-11T00:38:29.839Z,98.31
2017-05-11T00:39:40.835Z,98.02
2017-05-11T00:40:51.867Z,98.31
2017-05-11T00:42:02.923Z,97.64
2017-05-11T00:43:13.926Z,97.83
2017-05-11T00:44:24.935Z,98.12
2017-05-11T00:45:35.942Z,98.21
2017-05-11T00:46:46.949Z,98.02
2017-05-11T00:47:58.204Z,98.21
2017-05-11T00:49:09.208Z,98.4
2017-05-11T00:50:20.212Z,98.02
2017-05-11T00:51:31.221Z,98.5
2017-05-11T00:52:42.225Z,98.5
2017-05-11T00:53:53.428Z,98.59
2017-05-11T00:55:04.430Z,99.16
2017-05-11T00:56:15.633Z,99.07
2017-05-11T00:57:26.645Z,99.07
2017-05-11T00:58:37.645Z,99.07
2017-05-11T00:59:48.648Z,98.88
2017-05-11T01:00:59.678Z,98.97
2017-05-11T01:02:10.686Z,99.35
2017-05-11T01:03:21.691Z,99.35
2017-05-11T01:04:32.890Z,99.99
2017-05-11T01:05:44.151Z,99.54
2017-05-11T01:06:55.151Z,99.99
2017-05-11T01:08:06.361Z,99.99
2017-05-11T01:09:17.381Z,99.99
2017-05-11T01:10:28.391Z,99.92
2017-05-11T01:11:39.393Z,99.49
2017-05-11T01:12:50.398Z,99.54
2017-05-11T01:14:01.818Z,99.49
2017-05-11T01:15:12.876Z,99.77
2017-05-11T01:16:23.889Z,99.97
2017-05-11T01:17:34.883Z,99.92
2017-05-11T01:18:45.874Z,99.77
2017-05-11T01:19:56.924Z,99.87
2017-05-11T01:21:07.930Z,99.99
2017-05-11T01:22:18.921Z,99.99
2017-05-11T01:23:30.140Z,99.99
2017-05-11T01:24:41.187Z,99.97
2017-05-11T01:25:52.248Z,99.77
2017-05-11T01:27:03.261Z,99.99
2017-05-11T01:28:14.281Z,99.87
2017-05-11T01:29:25.486Z,99.97
2017-05-11T01:30:36.495Z,99.99
2017-05-11T01:31:47.495Z,99.99
2017-05-11T01:32:58.492Z,99.99
2017-05-11T01:34:09.535Z,99.99
2017-05-11T01:35:20.543Z,99.99
2017-05-11T01:36:31.601Z,99.99
2017-05-11T01:37:42.811Z,99.99
2017-05-11T01:38:54.023Z,99.99
2017-05-11T01:40:05.025Z,99.99
2017-05-11T01:41:16.034Z,99.99
2017-05-11T01:42:27.034Z,99.99
2017-05-11T01:43:38.054Z,99.99
2017-05-11T01:44:49.252Z,99.99
2017-05-11T01:46:00.255Z,99.99
2017-05-11T01:47:11.319Z,99.99
2017-05-11T01:48:22.528Z,99.99
2017-05-11T01:49:33.527Z,99.99
2017-05-11T01:50:44.537Z,99.99
2017-05-11T01:51:55.552Z,99.99
2017-05-11T01:53:06.815Z,99.99
2017-05-11T01:54:17.827Z,99.58
2017-05-11T01:55:28.840Z,99.99
2017-05-11T01:56:40.047Z,99.99
2017-05-11T01:57:51.047Z,99.99
2017-05-11T01:59:02.278Z,99.99
2017-05-11T02:00:13.284Z,99.99
2017-05-11T02:01:24.486Z,99.77
2017-05-11T02:02:35.485Z,99.99
2017-05-11T02:03:46.491Z,99.99
2017-05-11T02:04:57.534Z,99.99
2017-05-11T02:06:08.528Z,99.49
2017-05-11T02:07:19.536Z,99.77
2017-05-11T02:08:30.573Z,99.99
2017-05-11T02:09:41.588Z,99.87
2017-05-11T02:10:52.859Z,99.68
2017-05-11T02:12:03.870Z,99.99
2017-05-11T02:13:14.878Z,99.99
2017-05-11T02:14:25.890Z,99.99
2017-05-11T02:15:37.101Z,99.99
2017-05-11T02:16:48.111Z,99.99
2017-05-11T02:17:59.125Z,99.99
2017-05-11T02:19:10.331Z,99.99
2017-05-11T02:20:21.595Z,99.99
2017-05-11T02:21:32.590Z,99.99
2017-05-11T02:22:43.611Z,99.99
2017-05-11T02:23:54.829Z,99.99
2017-05-11T02:25:05.831Z,99.99
2017-05-11T02:26:16.825Z,99.99
2017-05-11T02:27:28.040Z,99.99
2017-05-11T02:28:39.037Z,99.99
2017-05-11T02:29:50.049Z,99.99
2017-05-11T02:31:01.098Z,99.99
2017-05-11T02:32:12.307Z,99.99
2017-05-11T02:33:23.312Z,99.99
2017-05-11T02:34:34.314Z,99.99
2017-05-11T02:35:45.326Z,99.99
2017-05-11T02:36:56.336Z,99.99
2017-05-11T02:38:07.339Z,99.99
2017-05-11T02:39:18.546Z,99.99
2017-05-11T02:40:29.560Z,99.99
2017-05-11T02:41:40.609Z,99.99
2017-05-11T02:42:51.600Z,99.99
2017-05-11T02:44:02.997Z,99.99
2017-05-11T02:45:14.209Z,99.99
2017-05-11T02:46:25.209Z,99.99
2017-05-11T02:47:36.206Z,99.99
2017-05-11T02:48:47.210Z,99.99
2017-05-11T02:49:58.220Z,99.99
2017-05-11T02:51:09.217Z,99.99
2017-05-11T02:52:20.466Z,99.97
2017-05-11T02:53:31.472Z,99.87
2017-05-11T02:54:42.677Z,99.99
2017-05-11T02:55:53.676Z,99.99
2017-05-11T02:57:04.874Z,99.99
2017-05-11T02:58:15.942Z,99.99
2017-05-11T02:59:26.951Z,99.99
2017-05-11T03:00:37.955Z,99.99
2017-05-11T03:01:49.370Z,99.99
2017-05-11T03:03:00.382Z,99.99
2017-05-11T03:04:11.377Z,99.99
2017-05-11T03:05:22.389Z,99.99
2017-05-11T03:06:33.391Z,99.99
2017-05-11T03:07:44.388Z,99.99
2017-05-11T03:08:55.392Z,99.99
2017-05-11T03:10:06.391Z,99.99
2017-05-11T03:11:17.801Z,99.99
2017-05-11T03:12:29.019Z,99.63
2017-05-11T03:13:40.022Z,99.91
2017-05-11T03:14:51.025Z,99.99
2017-05-11T03:16:02.328Z,99.99
2017-05-11T03:17:13.550Z,99.99
2017-05-11T03:18:24.766Z,99.99
2017-05-11T03:19:35.760Z,99.99
2017-05-11T03:20:46.965Z,99.99
2017-05-11T03:21:57.967Z,99.99
2017-05-11T03:23:08.977Z,99.99
2017-05-11T03:24:19.980Z,99.99
2017-05-11T03:25:30.990Z,99.99
2017-05-11T03:26:41.987Z,99.99
2017-05-11T03:27:52.990Z,99.99
2017-05-11T03:29:04.185Z,99.99
2017-05-11T03:30:15.443Z,99.99
2017-05-11T03:31:26.640Z,99.99
2017-05-11T03:32:37.641Z,99.99
2017-05-11T03:33:48.855Z,99.99
2017-05-11T03:34:59.863Z,99.99
2017-05-11T03:36:11.064Z,99.99
2017-05-11T03:37:22.074Z,99.99
2017-05-11T03:38:33.293Z,99.99
2017-05-11T03:39:44.301Z,99.91
2017-05-11T03:40:55.577Z,99.91
2017-05-11T03:42:06.574Z,99.99
2017-05-11T03:43:17.570Z,99.99
2017-05-11T03:44:28.566Z,99.99
2017-05-11T03:45:39.759Z,99.99
2017-05-11T03:46:51.354Z,99.99
2017-05-11T03:48:02.405Z,99.99
2017-05-11T03:49:13.406Z,99.63
2017-05-11T03:50:24.412Z,99.82
2017-05-11T03:51:35.450Z,99.54
2017-05-11T03:52:46.649Z,98.87
2017-05-11T03:53:57.665Z,99.54
2017-05-11T03:55:08.672Z,99.99
2017-05-11T03:56:19.878Z,99.99
2017-05-11T03:57:31.086Z,99.99
2017-05-11T03:58:42.085Z,99.99
2017-05-11T03:59:53.081Z,99.99
2017-05-11T04:01:04.335Z,99.99
2017-05-11T04:02:15.378Z,99.99
2017-05-11T04:03:26.381Z,99.99
2017-05-11T04:04:37.425Z,99.99
2017-05-11T04:05:48.425Z,99.99
2017-05-11T04:06:59.437Z,99.99
2017-05-11T04:08:10.705Z,99.99
2017-05-11T04:09:21.912Z,99.99
2017-05-11T04:10:32.920Z,99.99
2017-05-11T04:11:43.926Z,99.99
2017-05-11T04:12:54.936Z,99.99
2017-05-11T04:14:06.194Z,99.99
2017-05-11T04:15:17.197Z,99.99
2017-05-11T04:16:28.199Z,99.99
2017-05-11T04:17:39.206Z,99.99
2017-05-11T04:18:50.195Z,99.26
2017-05-11T04:20:01.209Z,99.77
2017-05-11T04:21:12.215Z,99.02
2017-05-11T04:22:23.457Z,97.02
2017-05-11T04:23:34.518Z,97.92
2017-05-11T04:24:45.522Z,97.92
2017-05-11T04:25:56.523Z,97.07
2017-05-11T04:27:07.522Z,95.84
2017-05-11T04:28:18.516Z,95.6
2017-05-11T04:29:29.534Z,94.46
2017-05-11T04:30:40.536Z,93.7
2017-05-11T04:31:51.538Z,93.75
2017-05-11T04:33:02.747Z,94.03
2017-05-11T04:34:13.804Z,93.37
2017-05-11T04:35:24.856Z,92.51
2017-05-11T04:36:35.864Z,91.42
2017-05-11T04:37:46.864Z,93.13
2017-05-11T04:38:58.070Z,92.56
2017-05-11T04:40:09.077Z,92.36
2017-05-11T04:41:20.073Z,90.47
2017-05-11T04:42:31.070Z,89.89
2017-05-11T04:43:42.274Z,90.94
2017-05-11T04:44:53.528Z,90.94
2017-05-11T04:46:04.536Z,90.84
2017-05-11T04:47:15.956Z,92.08
2017-05-11T04:48:26.944Z,93.13
2017-05-11T04:49:37.960Z,93.6
2017-05-11T04:50:48.955Z,94.7
2017-05-11T04:52:00.153Z,95.36
2017-05-11T04:53:11.565Z,94.6
2017-05-11T04:54:22.567Z,93.94
2017-05-11T04:55:33.638Z,93.18
2017-05-11T04:56:44.636Z,92.75
2017-05-11T04:57:55.644Z,93.6
2017-05-11T04:59:06.636Z,93.7
2017-05-11T05:00:17.651Z,95.32
2017-05-11T05:01:28.657Z,95.12
2017-05-11T05:02:39.713Z,95.56
2017-05-11T05:03:50.913Z,95.46
2017-05-11T05:05:01.919Z,96.41
2017-05-11T05:06:12.980Z,96.03
2017-05-11T05:07:23.981Z,96.6
2017-05-11T05:08:34.989Z,97.08
2017-05-11T05:09:46.018Z,96.69
2017-05-11T05:10:57.236Z,97.08
2017-05-11T05:12:08.254Z,96.5
2017-05-11T05:13:19.269Z,96.41
2017-05-11T05:14:30.491Z,96.98
2017-05-11T05:15:41.481Z,96.46
2017-05-11T05:16:52.490Z,96.74
2017-05-11T05:18:03.488Z,96.08
2017-05-11T05:19:14.495Z,96.55
2017-05-11T05:20:25.496Z,93.74
2017-05-11T05:21:36.501Z,94.6
2017-05-11T05:22:47.505Z,94.6
2017-05-11T05:23:58.574Z,93.65
2017-05-11T05:25:09.578Z,93.98
2017-05-11T05:26:20.583Z,95.41
2017-05-11T05:27:31.794Z,95.7
2017-05-11T05:28:42.800Z,96.55
2017-05-11T05:29:53.800Z,97.41
2017-05-11T05:31:04.802Z,98.08
2017-05-11T05:32:15.807Z,97.79
2017-05-11T05:33:26.871Z,97.88
2017-05-11T05:34:38.081Z,99.31
2017-05-11T05:35:49.091Z,99.45
2017-05-11T05:37:00.112Z,98.31
2017-05-11T05:38:11.131Z,97.17
2017-05-11T05:39:22.191Z,96.46
2017-05-11T05:40:33.418Z,97.98
2017-05-11T05:41:44.425Z,97.88
2017-05-11T05:42:55.436Z,98.17
2017-05-11T05:44:06.496Z,98.74
2017-05-11T05:45:17.510Z,98.83
2017-05-11T05:46:28.528Z,99.5
2017-05-11T05:47:39.539Z,99.88
2017-05-11T05:48:50.545Z,99.88
2017-05-11T05:50:01.556Z,98.83
2017-05-11T05:51:12.754Z,98.74
2017-05-11T05:52:23.751Z,99.41
2017-05-11T05:53:34.767Z,98.46
2017-05-11T05:54:46.020Z,96.94
2017-05-11T05:55:57.021Z,97.46
2017-05-11T05:57:08.234Z,96.51
2017-05-11T05:58:19.262Z,97.08
2017-05-11T05:59:30.275Z,97.46
2017-05-11T06:00:41.484Z,97.46
2017-05-11T06:01:52.482Z,94.46
2017-05-11T06:03:03.482Z,93.79
2017-05-11T06:04:14.526Z,92.32
2017-05-11T06:05:25.584Z,91.69
2017-05-11T06:06:36.601Z,91.13
2017-05-11T06:07:47.607Z,90.79
2017-05-11T06:08:58.613Z,91.27
2017-05-11T06:10:09.630Z,90.69
2017-05-11T06:11:20.665Z,90.31
2017-05-11T06:12:31.682Z,89.4
2017-05-11T06:13:42.909Z,86.82
2017-05-11T06:14:53.935Z,87.21
2017-05-11T06:16:04.995Z,87.06
2017-05-11T06:17:16.006Z,85.91
2017-05-11T06:18:27.010Z,86.58
2017-05-11T06:19:38.031Z,86.24
2017-05-11T06:20:49.089Z,85.58
2017-05-11T06:22:00.109Z,84.81
2017-05-11T06:23:11.338Z,83.7
2017-05-11T06:24:22.353Z,83.33
2017-05-11T06:25:33.783Z,83.33
2017-05-11T06:26:44.796Z,83.8
2017-05-11T06:27:55.809Z,82.6
2017-05-11T06:29:06.844Z,81.84
2017-05-11T06:30:17.858Z,81.84
2017-05-11T06:31:29.078Z,81.97
2017-05-11T06:32:40.101Z,81.93
2017-05-11T06:33:51.169Z,81.3
2017-05-11T06:35:02.189Z,80.73
2017-05-11T06:36:13.204Z,80.63
2017-05-11T06:37:24.215Z,80.16
2017-05-11T06:38:35.234Z,80.19
2017-05-11T06:39:46.263Z,78.76
2017-05-11T06:40:57.482Z,78.57
2017-05-11T06:42:08.501Z,78.61
2017-05-11T06:43:19.574Z,79.08
2017-05-11T06:44:30.605Z,77.94
2017-05-11T06:45:41.628Z,77.17
2017-05-11T06:46:52.639Z,78.13
2017-05-11T06:48:03.661Z,78.22
2017-05-11T06:49:14.682Z,78.99
2017-05-11T06:50:25.705Z,78.22
2017-05-11T06:51:36.730Z,77.97
2017-05-11T06:52:47.752Z,77.59
2017-05-11T06:53:58.836Z,76.54
2017-05-11T06:55:09.884Z,77.5
2017-05-11T06:56:21.113Z,75.9
2017-05-11T06:57:32.129Z,74.85
2017-05-11T06:58:43.153Z,75.46
2017-05-11T06:59:54.175Z,74.02
2017-05-11T07:01:05.211Z,73.77
2017-05-11T07:02:16.232Z,73.91
2017-05-11T07:03:27.269Z,72.75
2017-05-11T07:04:38.380Z,72.08
2017-05-11T07:05:49.395Z,70.2
2017-05-11T07:07:00.429Z,69.91
2017-05-11T07:08:11.659Z,70.29
2017-05-11T07:09:23.088Z,70.2
2017-05-11T07:10:34.115Z,69.43
2017-05-11T07:11:45.137Z,70.1
2017-05-11T07:12:56.383Z,69.81
2017-05-11T07:14:07.442Z,69.05
2017-05-11T07:15:18.507Z,69.27
2017-05-11T07:16:29.535Z,69.12
2017-05-11T07:17:40.550Z,68.15
2017-05-11T07:18:51.571Z,67.68
2017-05-11T07:20:02.597Z,68.25
2017-05-11T07:21:13.709Z,68.44
2017-05-11T07:22:24.751Z,68.98
2017-05-11T07:23:35.775Z,69.18
2017-05-11T07:24:46.800Z,68.51
2017-05-11T07:25:58.029Z,68.35
2017-05-11T07:27:09.061Z,67.86
2017-05-11T07:28:20.084Z,67.68
2017-05-11T07:29:31.113Z,67.96
2017-05-11T07:30:42.161Z,66.91
2017-05-11T07:31:53.389Z,66.65
2017-05-11T07:33:04.413Z,66.07
2017-05-11T07:34:15.453Z,66.55
2017-05-11T07:35:26.485Z,68.29
2017-05-11T07:36:37.510Z,67.99
2017-05-11T07:37:48.532Z,68.29
2017-05-11T07:38:59.817Z,67.51
2017-05-11T07:40:10.841Z,67.99
2017-05-11T07:41:22.060Z,67.32
2017-05-11T07:42:33.092Z,66.58
2017-05-11T07:43:44.110Z,66.49
2017-05-11T07:44:55.135Z,66.24
2017-05-11T07:46:06.154Z,66.24
2017-05-11T07:47:17.193Z,65.85
2017-05-11T07:48:28.678Z,66.17
2017-05-11T07:49:39.705Z,66.55
2017-05-11T07:50:51.125Z,64.82
2017-05-11T07:52:02.358Z,64.82
2017-05-11T07:53:13.592Z,64.43
2017-05-11T07:54:24.627Z,64.98
2017-05-11T07:55:35.655Z,66.24
2017-05-11T07:56:46.691Z,66.68
2017-05-11T07:57:57.728Z,67.55
2017-05-11T07:59:08.809Z,67.65
2017-05-11T08:00:19.827Z,66.97
2017-05-11T08:01:30.846Z,66.2
2017-05-11T08:02:41.861Z,66.1
2017-05-11T08:03:52.889Z,65.81
2017-05-11T08:05:03.910Z,65.72
2017-05-11T08:06:15.136Z,65.24
2017-05-11T08:07:26.150Z,65.24
2017-05-11T08:08:37.172Z,65.24
2017-05-11T08:09:48.458Z,64.86
2017-05-11T08:10:59.488Z,64.69
2017-05-11T08:12:10.510Z,65.75
2017-05-11T08:13:21.534Z,66.42
2017-05-11T08:14:32.569Z,64.98
2017-05-11T08:15:43.597Z,65.5
2017-05-11T08:16:54.632Z,63.47
2017-05-11T08:18:05.646Z,65.3
2017-05-11T08:19:16.676Z,64.34
2017-05-11T08:20:27.701Z,65.69
2017-05-11T08:21:39.119Z,65.5
2017-05-11T08:22:50.148Z,65.63
2017-05-11T08:24:01.183Z,64.79
2017-05-11T08:25:12.248Z,63.82
2017-05-11T08:26:23.280Z,61.83
2017-05-11T08:27:34.321Z,60.38
2017-05-11T08:28:45.771Z,60.86
2017-05-11T08:29:56.804Z,62.41
2017-05-11T08:31:07.837Z,62.44
2017-05-11T08:32:18.865Z,60.8
2017-05-11T08:33:30.105Z,62.15
2017-05-11T08:34:41.129Z,61.41
2017-05-11T08:35:52.153Z,61.44
2017-05-11T08:37:03.177Z,60.28
2017-05-11T08:38:14.201Z,60.28
2017-05-11T08:39:25.231Z,60.57
2017-05-11T08:40:36.461Z,60.69
2017-05-11T08:41:47.492Z,58.76
2017-05-11T08:42:58.586Z,59.44
2017-05-11T08:44:09.630Z,59.25
2017-05-11T08:45:20.662Z,59.05
2017-05-11T08:46:31.695Z,59.05
2017-05-11T08:47:42.719Z,59.15
2017-05-11T08:48:53.754Z,60.89
2017-05-11T08:50:04.792Z,60.05
2017-05-11T08:51:15.818Z,59.18
2017-05-11T08:52:26.890Z,57.73
2017-05-11T08:53:37.920Z,59.47
2017-05-11T08:54:48.956Z,59.86
2017-05-11T08:55:59.973Z,59.4
2017-05-11T08:57:10.999Z,56.88
2017-05-11T08:58:22.432Z,58.04
2017-05-11T08:59:33.664Z,58.04
2017-05-11T09:00:44.697Z,56.5
2017-05-11T09:01:56.139Z,56.4
2017-05-11T09:03:07.430Z,58.82
2017-05-11T09:04:18.667Z,60.08
2017-05-11T09:05:29.897Z,58.72
2017-05-11T09:06:40.936Z,57.76
2017-05-11T09:07:51.959Z,57.76
2017-05-11T09:09:03.188Z,58.82
2017-05-11T09:10:14.265Z,57.46
2017-05-11T09:11:25.297Z,58.44
2017-05-11T09:12:36.535Z,57.98
2017-05-11T09:13:47.621Z,55.98
2017-05-11T09:14:58.655Z,57.04
2017-05-11T09:16:09.709Z,55.4
2017-05-11T09:17:20.934Z,57.98
2017-05-11T09:18:31.967Z,55.85
2017-05-11T09:19:43.341Z,57.33
2017-05-11T09:21:00.369Z,55.68
2017-05-11T09:22:14.773Z,56.14
2017-05-11T09:23:25.910Z,56.56
2017-05-11T09:24:40.052Z,55.78
2017-05-11T09:25:51.955Z,55.52
2017-05-11T09:27:03.568Z,55.52
2017-05-11T09:28:19.618Z,54.55
2017-05-11T09:29:32.439Z,54.94
2017-05-11T09:30:46.653Z,56.36
2017-05-11T09:32:01.095Z,56.16
2017-05-11T09:33:16.750Z,56.07
2017-05-11T09:34:30.332Z,54.52
2017-05-11T09:35:43.986Z,54.52
2017-05-11T09:36:55.368Z,53.94
2017-05-11T09:38:07.092Z,54.52
2017-05-11T09:39:19.968Z,55.78
2017-05-11T09:40:32.343Z,54.71
2017-05-11T09:41:43.417Z,54.33
2017-05-11T09:42:54.714Z,55.3
2017-05-11T09:44:08.173Z,57.14
2017-05-11T09:45:19.285Z,56.56
2017-05-11T09:46:30.325Z,54.35
2017-05-11T09:47:41.373Z,57.81
2017-05-11T09:48:52.611Z,56.03
2017-05-11T09:50:03.723Z,54.77
2017-05-11T09:51:14.803Z,55.26
2017-05-11T09:52:26.038Z,56.51
2017-05-11T09:53:37.165Z,55.16
2017-05-11T09:54:48.205Z,54.96
2017-05-11T09:55:59.348Z,55.54
2017-05-11T09:57:11.544Z,57.12
2017-05-11T09:58:22.689Z,56.05
2017-05-11T09:59:34.086Z,55.6
2017-05-11T10:00:45.457Z,54.36
2017-05-11T10:01:56.662Z,55.63
2017-05-11T10:03:07.691Z,53
2017-05-11T10:04:18.734Z,52.72
2017-05-11T10:05:29.791Z,50.87
2017-05-11T10:06:41.097Z,52.2
2017-05-11T10:07:52.269Z,51.62
2017-05-11T10:09:03.657Z,52.11
2017-05-11T10:10:15.531Z,52.69
2017-05-11T10:11:26.572Z,54.7
2017-05-11T10:12:37.608Z,54.7
2017-05-11T10:13:48.706Z,55.26
2017-05-11T10:14:59.851Z,56.41
2017-05-11T10:16:10.884Z,55.26
2017-05-11T10:17:22.068Z,55.26
2017-05-11T10:18:33.100Z,55.35
2017-05-11T10:19:44.502Z,55.26
2017-05-11T10:20:55.930Z,54.77
2017-05-11T10:22:07.020Z,54.38
2017-05-11T10:23:18.749Z,55.62
2017-05-11T10:24:30.034Z,55.13
2017-05-11T10:25:42.768Z,56.46
2017-05-11T10:26:53.905Z,54.33
2017-05-11T10:28:05.003Z,55.46
2017-05-11T10:29:17.022Z,58.01
2017-05-11T10:30:28.768Z,57.04
2017-05-11T10:31:39.821Z,55.4
2017-05-11T10:32:51.057Z,53.45
2017-05-11T10:34:02.685Z,54.43
2017-05-11T10:35:17.218Z,55.22
2017-05-11T10:36:30.276Z,55.81
2017-05-11T10:37:41.300Z,53.8
2017-05-11T10:38:52.383Z,52.93
2017-05-11T10:40:03.410Z,53.24
2017-05-11T10:41:14.436Z,53.83
2017-05-11T10:42:25.464Z,53.41
2017-05-11T10:43:36.492Z,52.25
2017-05-11T10:44:47.566Z,56.03
2017-05-11T10:45:58.586Z,55.06
2017-05-11T10:47:09.621Z,55.93
2017-05-11T10:48:20.650Z,52.34
2017-05-11T10:49:31.693Z,54.86
2017-05-11T10:50:42.726Z,52.56
2017-05-11T10:51:53.761Z,54.7
2017-05-11T10:53:04.838Z,52.59
2017-05-11T10:54:15.865Z,52.37
2017-05-11T10:55:26.883Z,52.47
2017-05-11T10:56:38.102Z,50.99
2017-05-11T10:57:49.145Z,51.47
2017-05-11T10:59:00.203Z,52.08
2017-05-11T11:00:11.246Z,54.41
2017-05-11T11:01:22.319Z,51.33
2017-05-11T11:02:33.357Z,53.78
2017-05-11T11:03:44.388Z,51.93
2017-05-11T11:04:55.616Z,52.52
2017-05-11T11:06:06.646Z,53.47
2017-05-11T11:07:17.676Z,52.13
2017-05-11T11:08:28.898Z,52.01
2017-05-11T11:09:40.133Z,53.85
2017-05-11T11:10:51.214Z,52.4
2017-05-11T11:12:02.234Z,54.63
2017-05-11T11:13:13.456Z,53.27
2017-05-11T11:14:24.688Z,54.85
2017-05-11T11:15:35.723Z,54.27
2017-05-11T11:16:46.966Z,53.61
2017-05-11T11:17:58.002Z,53.16
2017-05-11T11:19:09.027Z,51.97
2017-05-11T11:20:20.069Z,52.15
2017-05-11T11:21:31.156Z,53.42
2017-05-11T11:22:42.174Z,54
2017-05-11T11:23:53.192Z,51.87
2017-05-11T11:25:04.217Z,52.91
2017-05-11T11:26:15.248Z,50.77
2017-05-11T11:27:26.471Z,53.49
2017-05-11T11:28:37.496Z,53.52
2017-05-11T11:29:48.513Z,54.68
2017-05-11T11:30:59.736Z,53.13
2017-05-11T11:32:10.812Z,53.71
2017-05-11T11:33:21.832Z,53.32
2017-05-11T11:34:33.057Z,53.91
2017-05-11T11:35:44.093Z,51.28
2017-05-11T11:36:55.168Z,50.24
2017-05-11T11:38:06.202Z,49.85
2017-05-11T11:39:17.421Z,49.95
2017-05-11T11:40:28.842Z,50.73
2017-05-11T11:41:39.866Z,51.01
2017-05-11T11:42:50.954Z,54.22
2017-05-11T11:44:01.987Z,52.69
2017-05-11T11:45:13.020Z,52.69
2017-05-11T11:46:24.043Z,51.99
2017-05-11T11:47:35.064Z,52.4
2017-05-11T11:48:46.289Z,49.58
2017-05-11T11:49:57.375Z,52.09
2017-05-11T11:51:08.431Z,51.89
2017-05-11T11:52:19.655Z,53.91
2017-05-11T11:53:30.739Z,51.18
2017-05-11T11:54:41.769Z,53.3
2017-05-11T11:55:53.201Z,54.53
2017-05-11T11:57:04.231Z,53.83
2017-05-11T11:58:15.461Z,54.96
2017-05-11T11:59:26.489Z,54.67
2017-05-11T12:00:37.520Z,53.41
2017-05-11T12:01:48.543Z,55.28
2017-05-11T12:02:59.558Z,55.67
2017-05-11T12:04:10.995Z,58
2017-05-11T12:05:22.039Z,54.53
2017-05-11T12:06:33.262Z,53.66
2017-05-11T12:07:44.290Z,52.52
2017-05-11T12:08:55.312Z,53.13
2017-05-11T12:10:06.336Z,54.9
2017-05-11T12:11:17.411Z,54.15
2017-05-11T12:12:28.435Z,51.21
2017-05-11T12:13:39.471Z,52.84
2017-05-11T12:14:50.497Z,51.93
2017-05-11T12:16:01.515Z,54.24
2017-05-11T12:17:12.542Z,56.4
2017-05-11T12:18:23.567Z,54.24
2017-05-11T12:19:34.587Z,57.06
2017-05-11T12:20:45.654Z,56.47
2017-05-11T12:21:56.681Z,54.92
2017-05-11T12:23:07.706Z,53.83
2017-05-11T12:24:18.927Z,54.41
2017-05-11T12:25:29.986Z,56.54
2017-05-11T12:26:40.993Z,57.32
2017-05-11T12:27:52.012Z,56.83
2017-05-11T12:29:03.033Z,57.12
2017-05-11T12:30:14.060Z,55.93
2017-05-11T12:31:25.318Z,58.16
2017-05-11T12:32:36.338Z,57.29
2017-05-11T12:33:47.570Z,59.61
2017-05-11T12:34:58.595Z,58.81
2017-05-11T12:36:09.631Z,58.14
2017-05-11T12:37:21.054Z,59.97
2017-05-11T12:38:32.081Z,57.07
2017-05-11T12:39:43.098Z,55.22
2017-05-11T12:40:54.120Z,57.94
2017-05-11T12:42:05.191Z,61.14
2017-05-11T12:43:16.215Z,59.39
2017-05-11T12:44:27.247Z,55.9
2017-05-11T12:45:38.269Z,56.2
2017-05-11T12:46:49.295Z,55.32
2017-05-11T12:48:00.318Z,55.81
2017-05-11T12:49:11.350Z,58.33
2017-05-11T12:50:22.370Z,59
2017-05-11T12:51:33.390Z,57.55
2017-05-11T12:52:44.460Z,58.04
2017-05-11T12:53:55.466Z,59.39
2017-05-11T12:55:06.484Z,60.33
2017-05-11T12:56:17.566Z,57.91
2017-05-11T12:57:29.191Z,59.56
2017-05-11T12:58:40.216Z,60.43
2017-05-11T12:59:51.425Z,60.24
2017-05-11T13:01:02.849Z,62.01
2017-05-11T13:02:14.267Z,60.55
2017-05-11T13:03:25.488Z,60.07
2017-05-11T13:04:36.710Z,59.78
2017-05-11T13:05:47.731Z,60.07
2017-05-11T13:06:58.752Z,59.97
2017-05-11T13:08:09.769Z,59.69
2017-05-11T13:09:20.793Z,59.81
2017-05-11T13:10:31.817Z,58.33
2017-05-11T13:11:43.041Z,60.07
2017-05-11T13:12:54.060Z,60.94
2017-05-11T13:14:05.111Z,62.3
2017-05-11T13:15:16.373Z,63.17
2017-05-11T13:16:27.385Z,61.62
2017-05-11T13:17:38.638Z,59.3
2017-05-11T13:18:49.861Z,61.72
2017-05-11T13:20:00.874Z,59.97
2017-05-11T13:21:11.894Z,60.43
2017-05-11T13:22:22.914Z,59.69
2017-05-11T13:23:33.932Z,61.52
2017-05-11T13:24:44.989Z,67.47
2017-05-11T13:25:56.019Z,67.37
2017-05-11T13:27:07.051Z,63.4
2017-05-11T13:28:18.066Z,66.4
2017-05-11T13:29:29.136Z,63.69
2017-05-11T13:30:40.157Z,62.43
2017-05-11T13:31:51.184Z,60.88
2017-05-11T13:33:02.205Z,60.97
2017-05-11T13:34:13.224Z,63.88
2017-05-11T13:35:24.332Z,62.2
2017-05-11T13:36:35.365Z,63.75
2017-05-11T13:37:46.388Z,60.94
2017-05-11T13:38:57.399Z,65.3
2017-05-11T13:40:08.415Z,62.13
2017-05-11T13:41:19.444Z,59.94
2017-05-11T13:42:30.505Z,58.19
2017-05-11T13:43:41.524Z,60.64
2017-05-11T13:44:52.550Z,60.16
2017-05-11T13:46:03.624Z,62.78
2017-05-11T13:47:14.642Z,64.23
2017-05-11T13:48:25.868Z,61.45
2017-05-11T13:49:36.897Z,61.45
2017-05-11T13:50:47.920Z,62.71
2017-05-11T13:51:58.957Z,62.39
2017-05-11T13:53:09.991Z,56.86
2017-05-11T13:54:21.215Z,56.86
2017-05-11T13:55:32.246Z,59.19
2017-05-11T13:56:43.549Z,56.47
2017-05-11T13:57:54.778Z,57.06
2017-05-11T13:59:05.798Z,60.74
2017-05-11T14:00:16.819Z,61.13
2017-05-11T14:01:27.840Z,62.01
2017-05-11T14:02:38.859Z,64.33
2017-05-11T14:03:49.884Z,63.36
2017-05-11T14:05:00.916Z,58.03
2017-05-11T14:06:11.945Z,57.25
2017-05-11T14:07:23.014Z,60.81
2017-05-11T14:08:34.035Z,61.58
2017-05-11T14:09:45.066Z,61.98
2017-05-11T14:10:56.105Z,58.55
2017-05-11T14:12:07.133Z,60.49
2017-05-11T14:13:18.150Z,58.19
2017-05-11T14:14:29.174Z,61.78
2017-05-11T14:15:40.199Z,61.49
2017-05-11T14:16:51.426Z,61.75
2017-05-11T14:18:02.443Z,63.4
2017-05-11T14:19:13.467Z,63.49
2017-05-11T14:20:24.485Z,63.3
2017-05-11T14:21:35.497Z,64.65
2017-05-11T14:22:46.511Z,60
2017-05-11T14:23:57.545Z,65.24
2017-05-11T14:25:08.819Z,58.36
2017-05-11T14:26:19.848Z,62.43
2017-05-11T14:27:30.874Z,59.81
2017-05-11T14:28:41.889Z,59
2017-05-11T14:29:53.302Z,57.55
2017-05-11T14:31:04.325Z,65.69
2017-05-11T14:32:15.572Z,63.69
2017-05-11T14:33:26.578Z,62.62
2017-05-11T14:34:37.642Z,65.34
2017-05-11T14:35:48.654Z,55.93
2017-05-11T14:36:59.673Z,56.39
2017-05-11T14:38:10.738Z,57.17
2017-05-11T14:39:21.767Z,58.49
2017-05-11T14:40:33.035Z,58.2
2017-05-11T14:41:44.066Z,56.46
2017-05-11T14:42:55.103Z,58.39
2017-05-11T14:44:06.122Z,61.27
2017-05-11T14:45:17.186Z,59.53
2017-05-11T14:46:28.201Z,59.14
2017-05-11T14:47:39.224Z,57.3
2017-05-11T14:48:50.250Z,58.82
2017-05-11T14:50:01.281Z,57.46
2017-05-11T14:51:12.309Z,59.11
2017-05-11T14:52:23.328Z,59.98
2017-05-11T14:53:34.351Z,56.79
2017-05-11T14:54:45.370Z,56.79
2017-05-11T14:55:56.642Z,59.4
2017-05-11T14:57:07.880Z,62.53
2017-05-11T14:58:18.909Z,62.53
2017-05-11T14:59:29.934Z,60.21
2017-05-11T15:00:41.547Z,57.5
2017-05-11T15:01:52.782Z,57.79
2017-05-11T15:03:04.015Z,57.79
2017-05-11T15:04:15.031Z,60.3
2017-05-11T15:05:26.436Z,61.27
2017-05-11T15:06:37.499Z,60.88
2017-05-11T15:07:48.514Z,59.98
2017-05-11T15:08:59.717Z,59.69
2017-05-11T15:10:10.737Z,60.08
2017-05-11T15:11:21.951Z,60.57
2017-05-11T15:12:33.026Z,60.66
2017-05-11T15:13:44.045Z,62.4
2017-05-11T15:14:55.047Z,61.53
2017-05-11T15:16:06.259Z,61.66
2017-05-11T15:17:17.269Z,60.11
2017-05-11T15:18:28.285Z,60.59
2017-05-11T15:19:39.299Z,59.91